sensor_id;sensor_type;location;lat;lon;timestamp;temperature;humidity
1429;DHT22;708;51.442;7.016;2022-07-23T00:00:10;18.20;65.00
1429;DHT22;708;51.442;7.016;2022-07-23T00:02:38;18.20;68.50
1429;DHT22;708;51.442;7.016;2022-07-23T00:05:08;18.10;66.60
1429;DHT22;708;51.442;7.016;2022-07-23T00:07:35;18.00;72.60
1429;DHT22;708;51.442;7.016;2022-07-23T00:10:03;18.00;84.00
1429;DHT22;708;51.442;7.016;2022-07-23T00:12:30;18.00;89.60
1429;DHT22;708;51.442;7.016;2022-07-23T00:14:56;18.00;92.90
1429;DHT22;708;51.442;7.016;2022-07-23T00:17:26;18.10;94.30
1429;DHT22;708;51.442;7.016;2022-07-23T00:19:54;18.00;93.90
1429;DHT22;708;51.442;7.016;2022-07-23T00:22:21;18.10;91.00
1429;DHT22;708;51.442;7.016;2022-07-23T00:24:47;18.10;93.30
1429;DHT22;708;51.442;7.016;2022-07-23T00:27:14;18.10;92.10
1429;DHT22;708;51.442;7.016;2022-07-23T00:29:41;18.20;93.30
1429;DHT22;708;51.442;7.016;2022-07-23T00:32:08;18.10;93.30
1429;DHT22;708;51.442;7.016;2022-07-23T00:34:35;18.20;92.00
1429;DHT22;708;51.442;7.016;2022-07-23T00:37:03;18.10;92.10
1429;DHT22;708;51.442;7.016;2022-07-23T00:39:30;18.10;87.40
1429;DHT22;708;51.442;7.016;2022-07-23T00:41:57;18.00;85.30
1429;DHT22;708;51.442;7.016;2022-07-23T00:44:25;18.00;78.70
1429;DHT22;708;51.442;7.016;2022-07-23T00:46:53;18.00;77.10
1429;DHT22;708;51.442;7.016;2022-07-23T00:49:21;18.00;84.70
1429;DHT22;708;51.442;7.016;2022-07-23T00:51:48;17.90;91.00
1429;DHT22;708;51.442;7.016;2022-07-23T00:54:17;17.90;93.70
1429;DHT22;708;51.442;7.016;2022-07-23T00:56:46;17.80;96.70
1429;DHT22;708;51.442;7.016;2022-07-23T00:59:13;17.80;99.70
1429;DHT22;708;51.442;7.016;2022-07-23T01:01:40;17.80;99.90
1429;DHT22;708;51.442;7.016;2022-07-23T01:04:09;17.80;99.90
1429;DHT22;708;51.442;7.016;2022-07-23T01:06:37;17.90;99.90
1429;DHT22;708;51.442;7.016;2022-07-23T01:09:06;18.00;99.90
1429;DHT22;708;51.442;7.016;2022-07-23T01:11:35;17.90;99.90
1429;DHT22;708;51.442;7.016;2022-07-23T01:14:11;18.00;99.90
1429;DHT22;708;51.442;7.016;2022-07-23T01:16:38;18.00;99.90
1429;DHT22;708;51.442;7.016;2022-07-23T01:19:05;18.00;99.90
1429;DHT22;708;51.442;7.016;2022-07-23T01:21:35;18.10;99.90
1429;DHT22;708;51.442;7.016;2022-07-23T01:24:05;18.20;99.90
1429;DHT22;708;51.442;7.016;2022-07-23T01:26:32;18.20;99.60
1429;DHT22;708;51.442;7.016;2022-07-23T01:28:59;18.20;99.40
1429;DHT22;708;51.442;7.016;2022-07-23T01:31:26;18.30;93.60
1429;DHT22;708;51.442;7.016;2022-07-23T01:33:53;18.30;87.20
1429;DHT22;708;51.442;7.016;2022-07-23T01:36:20;18.30;87.80
1429;DHT22;708;51.442;7.016;2022-07-23T01:38:47;18.30;90.30
1429;DHT22;708;51.442;7.016;2022-07-23T01:41:15;18.40;90.90
1429;DHT22;708;51.442;7.016;2022-07-23T01:43:42;18.50;85.30
1429;DHT22;708;51.442;7.016;2022-07-23T01:46:10;18.40;80.80
1429;DHT22;708;51.442;7.016;2022-07-23T01:48:36;18.40;76.40
1429;DHT22;708;51.442;7.016;2022-07-23T01:51:04;18.40;75.00
1429;DHT22;708;51.442;7.016;2022-07-23T01:53:30;18.40;67.50
1429;DHT22;708;51.442;7.016;2022-07-23T01:55:57;18.40;70.80
1429;DHT22;708;51.442;7.016;2022-07-23T01:58:26;18.40;77.00
1429;DHT22;708;51.442;7.016;2022-07-23T02:00:53;18.40;76.10
1429;DHT22;708;51.442;7.016;2022-07-23T02:03:20;18.40;73.90
1429;DHT22;708;51.442;7.016;2022-07-23T02:05:48;18.30;81.70
1429;DHT22;708;51.442;7.016;2022-07-23T02:08:15;18.40;83.00
1429;DHT22;708;51.442;7.016;2022-07-23T02:10:42;18.40;82.10
1429;DHT22;708;51.442;7.016;2022-07-23T02:13:12;18.40;82.50
1429;DHT22;708;51.442;7.016;2022-07-23T02:15:40;18.40;82.50
1429;DHT22;708;51.442;7.016;2022-07-23T02:18:07;18.40;83.10
1429;DHT22;708;51.442;7.016;2022-07-23T02:20:34;18.40;84.00
1429;DHT22;708;51.442;7.016;2022-07-23T02:23:04;18.40;82.90
1429;DHT22;708;51.442;7.016;2022-07-23T02:25:31;18.40;81.30
1429;DHT22;708;51.442;7.016;2022-07-23T02:27:58;18.40;80.00
1429;DHT22;708;51.442;7.016;2022-07-23T02:30:25;18.40;71.80
1429;DHT22;708;51.442;7.016;2022-07-23T02:32:53;18.40;68.50
1429;DHT22;708;51.442;7.016;2022-07-23T02:35:20;18.40;69.50
1429;DHT22;708;51.442;7.016;2022-07-23T02:37:46;18.40;72.20
1429;DHT22;708;51.442;7.016;2022-07-23T02:40:13;18.20;71.20
1429;DHT22;708;51.442;7.016;2022-07-23T02:42:40;18.20;76.60
1429;DHT22;708;51.442;7.016;2022-07-23T02:45:08;18.20;77.80
1429;DHT22;708;51.442;7.016;2022-07-23T02:47:35;18.10;78.00
1429;DHT22;708;51.442;7.016;2022-07-23T02:50:04;18.00;81.60
1429;DHT22;708;51.442;7.016;2022-07-23T02:52:30;18.00;86.70
1429;DHT22;708;51.442;7.016;2022-07-23T02:54:58;18.00;91.10
1429;DHT22;708;51.442;7.016;2022-07-23T02:57:25;18.00;94.00
1429;DHT22;708;51.442;7.016;2022-07-23T02:59:52;18.00;92.50
1429;DHT22;708;51.442;7.016;2022-07-23T03:02:19;18.00;95.50
1429;DHT22;708;51.442;7.016;2022-07-23T03:04:45;18.00;94.20
1429;DHT22;708;51.442;7.016;2022-07-23T03:07:14;18.00;93.90
1429;DHT22;708;51.442;7.016;2022-07-23T03:09:41;18.00;93.80
1429;DHT22;708;51.442;7.016;2022-07-23T03:12:08;17.90;95.50
1429;DHT22;708;51.442;7.016;2022-07-23T03:14:35;17.90;96.50
1429;DHT22;708;51.442;7.016;2022-07-23T03:17:02;17.90;95.30
1429;DHT22;708;51.442;7.016;2022-07-23T03:19:29;17.90;91.70
1429;DHT22;708;51.442;7.016;2022-07-23T03:21:55;17.90;92.50
1429;DHT22;708;51.442;7.016;2022-07-23T03:24:24;17.90;84.00
1429;DHT22;708;51.442;7.016;2022-07-23T03:27:10;17.80;86.50
1429;DHT22;708;51.442;7.016;2022-07-23T03:29:37;17.70;86.80
1429;DHT22;708;51.442;7.016;2022-07-23T03:32:04;17.60;91.20
1429;DHT22;708;51.442;7.016;2022-07-23T03:34:31;17.50;91.80
1429;DHT22;708;51.442;7.016;2022-07-23T03:36:58;17.40;93.20
1429;DHT22;708;51.442;7.016;2022-07-23T03:39:26;17.40;95.50
1429;DHT22;708;51.442;7.016;2022-07-23T03:41:53;17.30;96.40
1429;DHT22;708;51.442;7.016;2022-07-23T03:44:20;17.30;98.20
1429;DHT22;708;51.442;7.016;2022-07-23T03:46:47;17.20;98.70
1429;DHT22;708;51.442;7.016;2022-07-23T03:49:14;17.20;99.00
1429;DHT22;708;51.442;7.016;2022-07-23T03:51:41;17.10;99.90
1429;DHT22;708;51.442;7.016;2022-07-23T03:54:08;17.10;99.90
1429;DHT22;708;51.442;7.016;2022-07-23T03:56:36;17.10;99.90
1429;DHT22;708;51.442;7.016;2022-07-23T03:59:03;17.10;99.90
1429;DHT22;708;51.442;7.016;2022-07-23T04:01:30;17.10;99.90
1429;DHT22;708;51.442;7.016;2022-07-23T04:03:57;17.00;99.90
1429;DHT22;708;51.442;7.016;2022-07-23T04:06:24;17.00;99.90
1429;DHT22;708;51.442;7.016;2022-07-23T04:08:51;17.10;99.90
1429;DHT22;708;51.442;7.016;2022-07-23T04:11:18;17.10;99.90
1429;DHT22;708;51.442;7.016;2022-07-23T04:13:46;17.10;99.90
1429;DHT22;708;51.442;7.016;2022-07-23T04:16:13;17.10;99.90
1429;DHT22;708;51.442;7.016;2022-07-23T04:18:40;17.10;99.90
1429;DHT22;708;51.442;7.016;2022-07-23T04:21:07;17.20;99.90
1429;DHT22;708;51.442;7.016;2022-07-23T04:23:34;17.30;99.90
1429;DHT22;708;51.442;7.016;2022-07-23T04:26:00;17.30;99.90
1429;DHT22;708;51.442;7.016;2022-07-23T04:28:27;17.40;99.90
1429;DHT22;708;51.442;7.016;2022-07-23T04:30:57;17.40;99.90
1429;DHT22;708;51.442;7.016;2022-07-23T04:33:24;17.50;99.90
1429;DHT22;708;51.442;7.016;2022-07-23T04:35:51;17.60;99.90
1429;DHT22;708;51.442;7.016;2022-07-23T04:38:18;17.70;99.90
1429;DHT22;708;51.442;7.016;2022-07-23T04:40:44;17.90;97.00
1429;DHT22;708;51.442;7.016;2022-07-23T04:43:11;18.00;91.00
1429;DHT22;708;51.442;7.016;2022-07-23T04:45:38;18.00;83.60
1429;DHT22;708;51.442;7.016;2022-07-23T04:48:06;18.20;91.10
1429;DHT22;708;51.442;7.016;2022-07-23T04:50:33;18.60;79.70
1429;DHT22;708;51.442;7.016;2022-07-23T04:53:00;19.10;65.80
1429;DHT22;708;51.442;7.016;2022-07-23T04:55:27;19.60;28.90
1429;DHT22;708;51.442;7.016;2022-07-23T04:57:53;20.20;4.60
1429;DHT22;708;51.442;7.016;2022-07-23T05:00:23;20.70;1.00
1429;DHT22;708;51.442;7.016;2022-07-23T05:02:49;21.30;1.00
1429;DHT22;708;51.442;7.016;2022-07-23T05:05:18;21.70;1.00
1429;DHT22;708;51.442;7.016;2022-07-23T05:07:44;22.40;1.00
1429;DHT22;708;51.442;7.016;2022-07-23T05:10:11;22.90;1.00
1429;DHT22;708;51.442;7.016;2022-07-23T05:12:38;23.60;1.00
1429;DHT22;708;51.442;7.016;2022-07-23T05:15:05;24.20;99.90
1429;DHT22;708;51.442;7.016;2022-07-23T05:17:32;24.80;99.90
1429;DHT22;708;51.442;7.016;2022-07-23T05:19:59;25.30;99.90
1429;DHT22;708;51.442;7.016;2022-07-23T05:22:28;25.70;1.00
1429;DHT22;708;51.442;7.016;2022-07-23T05:24:54;26.10;99.90
1429;DHT22;708;51.442;7.016;2022-07-23T05:27:21;26.40;99.90
1429;DHT22;708;51.442;7.016;2022-07-23T05:29:48;26.60;1.00
1429;DHT22;708;51.442;7.016;2022-07-23T05:32:15;27.00;99.90
1429;DHT22;708;51.442;7.016;2022-07-23T05:34:42;27.40;1.00
1429;DHT22;708;51.442;7.016;2022-07-23T05:37:08;27.80;99.90
1429;DHT22;708;51.442;7.016;2022-07-23T05:39:37;28.20;1.00
1429;DHT22;708;51.442;7.016;2022-07-23T05:42:04;28.80;1.00
1429;DHT22;708;51.442;7.016;2022-07-23T05:44:31;29.10;99.90
1429;DHT22;708;51.442;7.016;2022-07-23T05:47:00;29.80;1.00
1429;DHT22;708;51.442;7.016;2022-07-23T05:49:27;30.30;1.00
1429;DHT22;708;51.442;7.016;2022-07-23T05:51:54;30.90;99.90
1429;DHT22;708;51.442;7.016;2022-07-23T05:54:21;31.20;99.90
1429;DHT22;708;51.442;7.016;2022-07-23T05:56:49;31.70;99.90
1429;DHT22;708;51.442;7.016;2022-07-23T05:59:18;31.70;99.90
1429;DHT22;708;51.442;7.016;2022-07-23T06:02:03;32.00;99.90
1429;DHT22;708;51.442;7.016;2022-07-23T06:04:30;32.40;99.90
1429;DHT22;708;51.442;7.016;2022-07-23T06:06:57;32.40;99.90
1429;DHT22;708;51.442;7.016;2022-07-23T06:09:23;32.80;99.90
1429;DHT22;708;51.442;7.016;2022-07-23T06:11:51;33.00;99.90
1429;DHT22;708;51.442;7.016;2022-07-23T06:14:18;33.30;99.90
1429;DHT22;708;51.442;7.016;2022-07-23T06:16:45;33.60;99.90
1429;DHT22;708;51.442;7.016;2022-07-23T06:19:12;34.10;99.90
1429;DHT22;708;51.442;7.016;2022-07-23T06:21:39;34.00;99.90
1429;DHT22;708;51.442;7.016;2022-07-23T06:24:06;34.00;99.90
1429;DHT22;708;51.442;7.016;2022-07-23T06:26:33;34.30;99.90
1429;DHT22;708;51.442;7.016;2022-07-23T06:29:01;34.90;99.90
1429;DHT22;708;51.442;7.016;2022-07-23T06:31:28;35.10;99.90
1429;DHT22;708;51.442;7.016;2022-07-23T06:33:55;35.30;97.50
1429;DHT22;708;51.442;7.016;2022-07-23T06:36:22;35.70;86.90
1429;DHT22;708;51.442;7.016;2022-07-23T06:38:49;36.00;88.20
1429;DHT22;708;51.442;7.016;2022-07-23T06:41:16;36.40;81.20
1429;DHT22;708;51.442;7.016;2022-07-23T06:43:43;37.00;75.10
1429;DHT22;708;51.442;7.016;2022-07-23T06:46:11;37.30;64.70
1429;DHT22;708;51.442;7.016;2022-07-23T06:48:38;37.60;57.20
1429;DHT22;708;51.442;7.016;2022-07-23T06:51:05;38.00;52.70
1429;DHT22;708;51.442;7.016;2022-07-23T06:53:32;38.10;48.50
1429;DHT22;708;51.442;7.016;2022-07-23T06:55:59;37.90;43.80
1429;DHT22;708;51.442;7.016;2022-07-23T06:58:26;37.70;40.70
1429;DHT22;708;51.442;7.016;2022-07-23T07:00:52;37.80;37.70
1429;DHT22;708;51.442;7.016;2022-07-23T07:03:20;37.50;34.70
1429;DHT22;708;51.442;7.016;2022-07-23T07:05:48;36.50;31.20
1429;DHT22;708;51.442;7.016;2022-07-23T07:08:15;35.30;29.90
1429;DHT22;708;51.442;7.016;2022-07-23T07:10:42;34.40;29.20
1429;DHT22;708;51.442;7.016;2022-07-23T07:13:08;33.50;30.50
1429;DHT22;708;51.442;7.016;2022-07-23T07:15:35;32.30;35.60
1429;DHT22;708;51.442;7.016;2022-07-23T07:18:02;31.70;50.40
1429;DHT22;708;51.442;7.016;2022-07-23T07:20:31;31.50;83.90
1429;DHT22;708;51.442;7.016;2022-07-23T07:22:58;30.80;99.90
1429;DHT22;708;51.442;7.016;2022-07-23T07:25:25;30.30;99.90
1429;DHT22;708;51.442;7.016;2022-07-23T07:27:51;30.30;99.90
1429;DHT22;708;51.442;7.016;2022-07-23T07:30:18;31.30;99.90
1429;DHT22;708;51.442;7.016;2022-07-23T07:32:45;32.60;99.90
1429;DHT22;708;51.442;7.016;2022-07-23T07:35:12;33.20;99.90
1429;DHT22;708;51.442;7.016;2022-07-23T07:37:40;34.00;99.90
1429;DHT22;708;51.442;7.016;2022-07-23T07:40:08;35.00;99.90
1429;DHT22;708;51.442;7.016;2022-07-23T07:42:44;35.00;95.10
1429;DHT22;708;51.442;7.016;2022-07-23T07:45:11;33.90;81.80
1429;DHT22;708;51.442;7.016;2022-07-23T07:47:39;33.10;79.10
1429;DHT22;708;51.442;7.016;2022-07-23T07:50:06;32.80;92.60
1429;DHT22;708;51.442;7.016;2022-07-23T07:52:33;33.30;91.30
1429;DHT22;708;51.442;7.016;2022-07-23T07:55:04;33.90;90.60
1429;DHT22;708;51.442;7.016;2022-07-23T07:57:31;34.80;84.40
1429;DHT22;708;51.442;7.016;2022-07-23T07:59:58;34.70;72.40
1429;DHT22;708;51.442;7.016;2022-07-23T08:02:25;34.90;63.30
1429;DHT22;708;51.442;7.016;2022-07-23T08:04:52;35.10;54.60
1429;DHT22;708;51.442;7.016;2022-07-23T08:07:19;34.70;50.70
1429;DHT22;708;51.442;7.016;2022-07-23T08:09:46;34.30;47.20
1429;DHT22;708;51.442;7.016;2022-07-23T08:12:14;33.80;46.80
1429;DHT22;708;51.442;7.016;2022-07-23T08:14:42;33.50;47.80
1429;DHT22;708;51.442;7.016;2022-07-23T08:17:10;33.00;48.90
1429;DHT22;708;51.442;7.016;2022-07-23T08:19:37;32.80;52.20
1429;DHT22;708;51.442;7.016;2022-07-23T08:22:03;32.70;55.10
1429;DHT22;708;51.442;7.016;2022-07-23T08:24:30;33.00;55.00
1429;DHT22;708;51.442;7.016;2022-07-23T08:26:57;33.00;53.50
1429;DHT22;708;51.442;7.016;2022-07-23T08:29:25;32.80;55.10
1429;DHT22;708;51.442;7.016;2022-07-23T08:31:52;33.70;58.20
1429;DHT22;708;51.442;7.016;2022-07-23T08:34:19;34.80;55.70
1429;DHT22;708;51.442;7.016;2022-07-23T08:36:46;36.00;49.50
1429;DHT22;708;51.442;7.016;2022-07-23T08:41:40;38.00;29.90
1429;DHT22;708;51.442;7.016;2022-07-23T08:44:08;38.00;30.10
1429;DHT22;708;51.442;7.016;2022-07-23T08:46:36;37.70;25.00
1429;DHT22;708;51.442;7.016;2022-07-23T08:49:06;37.90;22.50
1429;DHT22;708;51.442;7.016;2022-07-23T08:51:34;38.30;19.00
1429;DHT22;708;51.442;7.016;2022-07-23T08:54:01;38.50;16.70
1429;DHT22;708;51.442;7.016;2022-07-23T08:56:28;38.40;14.20
1429;DHT22;708;51.442;7.016;2022-07-23T08:58:55;37.80;11.70
1429;DHT22;708;51.442;7.016;2022-07-23T09:01:22;37.80;10.50
1429;DHT22;708;51.442;7.016;2022-07-23T09:03:50;38.00;9.00
1429;DHT22;708;51.442;7.016;2022-07-23T09:06:17;38.20;7.60
1429;DHT22;708;51.442;7.016;2022-07-23T09:08:44;38.40;5.60
1429;DHT22;708;51.442;7.016;2022-07-23T09:11:13;39.00;5.40
1429;DHT22;708;51.442;7.016;2022-07-23T09:13:46;39.10;3.20
1429;DHT22;708;51.442;7.016;2022-07-23T09:16:14;39.40;2.00
1429;DHT22;708;51.442;7.016;2022-07-23T09:18:43;39.40;1.00
1429;DHT22;708;51.442;7.016;2022-07-23T09:21:18;39.50;1.00
1429;DHT22;708;51.442;7.016;2022-07-23T09:23:47;39.70;1.00
1429;DHT22;708;51.442;7.016;2022-07-23T09:26:23;40.00;1.00
1429;DHT22;708;51.442;7.016;2022-07-23T09:28:59;39.70;1.00
1429;DHT22;708;51.442;7.016;2022-07-23T09:31:32;40.00;1.00
1429;DHT22;708;51.442;7.016;2022-07-23T09:34:07;40.30;1.00
1429;DHT22;708;51.442;7.016;2022-07-23T09:36:36;40.60;1.00
1429;DHT22;708;51.442;7.016;2022-07-23T09:39:04;40.60;1.00
1429;DHT22;708;51.442;7.016;2022-07-23T09:41:36;40.60;1.00
1429;DHT22;708;51.442;7.016;2022-07-23T09:44:14;40.20;1.00
1429;DHT22;708;51.442;7.016;2022-07-23T09:46:47;40.00;1.00
1429;DHT22;708;51.442;7.016;2022-07-23T09:49:17;39.90;1.00
1429;DHT22;708;51.442;7.016;2022-07-23T09:51:54;39.40;1.00
1429;DHT22;708;51.442;7.016;2022-07-23T09:54:28;39.50;1.00
1429;DHT22;708;51.442;7.016;2022-07-23T09:56:58;39.50;1.00
1429;DHT22;708;51.442;7.016;2022-07-23T09:59:27;39.40;1.00
1429;DHT22;708;51.442;7.016;2022-07-23T10:01:55;39.20;1.00
1429;DHT22;708;51.442;7.016;2022-07-23T10:04:23;39.30;1.00
1429;DHT22;708;51.442;7.016;2022-07-23T10:06:54;39.10;1.00
1429;DHT22;708;51.442;7.016;2022-07-23T10:09:24;39.40;1.00
1429;DHT22;708;51.442;7.016;2022-07-23T10:11:52;39.50;1.00
1429;DHT22;708;51.442;7.016;2022-07-23T10:14:21;39.10;1.00
1429;DHT22;708;51.442;7.016;2022-07-23T10:16:48;38.90;1.00
1429;DHT22;708;51.442;7.016;2022-07-23T10:19:15;38.80;1.00
1429;DHT22;708;51.442;7.016;2022-07-23T10:21:46;38.80;1.00
1429;DHT22;708;51.442;7.016;2022-07-23T10:24:24;38.60;1.00
1429;DHT22;708;51.442;7.016;2022-07-23T10:27:02;38.00;1.00
1429;DHT22;708;51.442;7.016;2022-07-23T10:29:39;37.60;1.00
1429;DHT22;708;51.442;7.016;2022-07-23T10:32:17;37.60;1.00
1429;DHT22;708;51.442;7.016;2022-07-23T10:34:52;37.50;1.00
1429;DHT22;708;51.442;7.016;2022-07-23T10:40:08;36.40;1.00
1429;DHT22;708;51.442;7.016;2022-07-23T10:42:36;35.90;1.00
1429;DHT22;708;51.442;7.016;2022-07-23T10:45:26;36.40;1.00
1429;DHT22;708;51.442;7.016;2022-07-23T10:47:54;34.70;1.00
1429;DHT22;708;51.442;7.016;2022-07-23T10:50:23;34.30;1.00
1429;DHT22;708;51.442;7.016;2022-07-23T10:53:13;33.60;2.30
1429;DHT22;708;51.442;7.016;2022-07-23T10:55:48;32.90;1.00
1429;DHT22;708;51.442;7.016;2022-07-23T10:58:21;32.10;1.00
1429;DHT22;708;51.442;7.016;2022-07-23T11:00:48;30.80;1.00
1429;DHT22;708;51.442;7.016;2022-07-23T11:03:32;30.20;1.00
1429;DHT22;708;51.442;7.016;2022-07-23T11:06:02;29.70;10.40
1429;DHT22;708;51.442;7.016;2022-07-23T11:08:29;29.30;23.70
1429;DHT22;708;51.442;7.016;2022-07-23T11:11:09;29.10;1.00
1429;DHT22;708;51.442;7.016;2022-07-23T11:16:24;28.50;1.00
1429;DHT22;708;51.442;7.016;2022-07-23T11:19:03;28.10;1.00
1429;DHT22;708;51.442;7.016;2022-07-23T11:21:51;27.90;1.00
1429;DHT22;708;51.442;7.016;2022-07-23T11:24:20;27.80;1.00
1429;DHT22;708;51.442;7.016;2022-07-23T11:27:03;27.80;1.00
1429;DHT22;708;51.442;7.016;2022-07-23T11:29:48;27.90;1.00
1429;DHT22;708;51.442;7.016;2022-07-23T11:32:33;28.00;1.00
1429;DHT22;708;51.442;7.016;2022-07-23T11:35:01;28.20;1.00
1429;DHT22;708;51.442;7.016;2022-07-23T11:37:37;28.20;1.00
1429;DHT22;708;51.442;7.016;2022-07-23T11:40:07;28.30;1.00
1429;DHT22;708;51.442;7.016;2022-07-23T11:42:40;28.30;1.30
1429;DHT22;708;51.442;7.016;2022-07-23T11:45:17;28.30;3.40
1429;DHT22;708;51.442;7.016;2022-07-23T11:47:44;28.30;10.40
1429;DHT22;708;51.442;7.016;2022-07-23T11:50:11;28.20;11.30
1429;DHT22;708;51.442;7.016;2022-07-23T11:52:38;28.00;19.00
1429;DHT22;708;51.442;7.016;2022-07-23T11:55:07;27.90;25.10
1429;DHT22;708;51.442;7.016;2022-07-23T11:57:37;27.90;33.00
1429;DHT22;708;51.442;7.016;2022-07-23T12:00:07;27.90;47.70
1429;DHT22;708;51.442;7.016;2022-07-23T12:02:35;27.90;56.70
1429;DHT22;708;51.442;7.016;2022-07-23T12:05:02;27.90;66.30
1429;DHT22;708;51.442;7.016;2022-07-23T12:07:34;27.80;75.10
1429;DHT22;708;51.442;7.016;2022-07-23T12:10:05;27.90;99.90
1429;DHT22;708;51.442;7.016;2022-07-23T12:12:38;28.00;99.90
1429;DHT22;708;51.442;7.016;2022-07-23T12:15:06;28.00;99.90
1429;DHT22;708;51.442;7.016;2022-07-23T12:17:34;28.10;99.90
1429;DHT22;708;51.442;7.016;2022-07-23T12:20:04;28.20;99.90
1429;DHT22;708;51.442;7.016;2022-07-23T12:22:36;28.20;99.90
1429;DHT22;708;51.442;7.016;2022-07-23T12:25:06;28.20;99.90
1429;DHT22;708;51.442;7.016;2022-07-23T12:27:34;28.30;99.90
1429;DHT22;708;51.442;7.016;2022-07-23T12:30:24;28.50;99.90
1429;DHT22;708;51.442;7.016;2022-07-23T12:32:53;28.60;99.90
1429;DHT22;708;51.442;7.016;2022-07-23T12:35:20;28.60;99.90
1429;DHT22;708;51.442;7.016;2022-07-23T12:37:48;28.60;99.90
1429;DHT22;708;51.442;7.016;2022-07-23T12:40:25;28.60;99.90
1429;DHT22;708;51.442;7.016;2022-07-23T12:42:55;28.50;99.90
1429;DHT22;708;51.442;7.016;2022-07-23T12:45:24;28.40;99.90
1429;DHT22;708;51.442;7.016;2022-07-23T12:47:53;28.30;99.90
1429;DHT22;708;51.442;7.016;2022-07-23T12:50:35;28.20;99.90
1429;DHT22;708;51.442;7.016;2022-07-23T12:53:07;27.90;99.90
1429;DHT22;708;51.442;7.016;2022-07-23T12:55:34;28.00;99.90
1429;DHT22;708;51.442;7.016;2022-07-23T12:58:06;28.00;99.90
1429;DHT22;708;51.442;7.016;2022-07-23T13:03:29;28.10;99.90
1429;DHT22;708;51.442;7.016;2022-07-23T13:05:57;28.10;99.90
1429;DHT22;708;51.442;7.016;2022-07-23T13:08:25;28.20;99.90
1429;DHT22;708;51.442;7.016;2022-07-23T13:10:52;28.30;99.90
1429;DHT22;708;51.442;7.016;2022-07-23T13:13:24;28.20;99.90
1429;DHT22;708;51.442;7.016;2022-07-23T13:15:51;28.10;99.90
1429;DHT22;708;51.442;7.016;2022-07-23T13:18:18;28.00;99.90
1429;DHT22;708;51.442;7.016;2022-07-23T13:20:50;27.70;99.90
1429;DHT22;708;51.442;7.016;2022-07-23T13:23:18;27.50;99.90
1429;DHT22;708;51.442;7.016;2022-07-23T13:25:45;27.40;99.90
1429;DHT22;708;51.442;7.016;2022-07-23T13:28:12;27.50;99.90
1429;DHT22;708;51.442;7.016;2022-07-23T13:30:40;27.60;99.90
1429;DHT22;708;51.442;7.016;2022-07-23T13:33:07;27.70;99.90
1429;DHT22;708;51.442;7.016;2022-07-23T13:35:35;27.80;99.90
1429;DHT22;708;51.442;7.016;2022-07-23T13:38:04;28.00;99.90
1429;DHT22;708;51.442;7.016;2022-07-23T13:40:33;28.10;99.90
1429;DHT22;708;51.442;7.016;2022-07-23T13:42:59;28.20;91.60
1429;DHT22;708;51.442;7.016;2022-07-23T13:45:26;28.30;89.80
1429;DHT22;708;51.442;7.016;2022-07-23T13:47:53;28.40;91.80
1429;DHT22;708;51.442;7.016;2022-07-23T13:50:20;28.60;90.00
1429;DHT22;708;51.442;7.016;2022-07-23T13:52:47;28.70;81.90
1429;DHT22;708;51.442;7.016;2022-07-23T13:55:15;28.80;80.20
1429;DHT22;708;51.442;7.016;2022-07-23T13:57:41;28.80;78.70
1429;DHT22;708;51.442;7.016;2022-07-23T14:00:12;28.90;73.30
1429;DHT22;708;51.442;7.016;2022-07-23T14:02:39;28.90;64.50
1429;DHT22;708;51.442;7.016;2022-07-23T14:05:09;28.90;58.80
1429;DHT22;708;51.442;7.016;2022-07-23T14:07:37;28.90;56.10
1429;DHT22;708;51.442;7.016;2022-07-23T14:10:06;28.90;58.70
1429;DHT22;708;51.442;7.016;2022-07-23T14:12:35;29.00;58.10
1429;DHT22;708;51.442;7.016;2022-07-23T14:15:02;29.10;58.60
1429;DHT22;708;51.442;7.016;2022-07-23T14:17:30;29.10;62.00
1429;DHT22;708;51.442;7.016;2022-07-23T14:19:58;29.10;63.00
1429;DHT22;708;51.442;7.016;2022-07-23T14:22:26;29.10;57.40
1429;DHT22;708;51.442;7.016;2022-07-23T14:24:54;28.80;51.50
1429;DHT22;708;51.442;7.016;2022-07-23T14:27:23;28.70;51.60
1429;DHT22;708;51.442;7.016;2022-07-23T14:29:52;28.70;53.90
1429;DHT22;708;51.442;7.016;2022-07-23T14:32:19;28.70;56.00
1429;DHT22;708;51.442;7.016;2022-07-23T14:34:46;28.80;60.10
1429;DHT22;708;51.442;7.016;2022-07-23T14:37:14;29.00;62.10
1429;DHT22;708;51.442;7.016;2022-07-23T14:39:43;29.10;62.00
1429;DHT22;708;51.442;7.016;2022-07-23T14:42:10;29.30;61.40
1429;DHT22;708;51.442;7.016;2022-07-23T14:44:37;29.20;51.50
1429;DHT22;708;51.442;7.016;2022-07-23T14:47:06;29.20;48.90
1429;DHT22;708;51.442;7.016;2022-07-23T14:49:33;29.10;45.30
1429;DHT22;708;51.442;7.016;2022-07-23T14:52:01;29.00;43.30
1429;DHT22;708;51.442;7.016;2022-07-23T14:54:28;29.00;46.30
1429;DHT22;708;51.442;7.016;2022-07-23T14:56:56;29.30;49.10
1429;DHT22;708;51.442;7.016;2022-07-23T14:59:25;29.40;48.90
1429;DHT22;708;51.442;7.016;2022-07-23T15:01:52;29.50;47.50
1429;DHT22;708;51.442;7.016;2022-07-23T15:04:21;29.50;45.50
1429;DHT22;708;51.442;7.016;2022-07-23T15:06:51;29.60;42.80
1429;DHT22;708;51.442;7.016;2022-07-23T15:09:18;29.70;40.80
1429;DHT22;708;51.442;7.016;2022-07-23T15:11:45;29.70;40.00
1429;DHT22;708;51.442;7.016;2022-07-23T15:14:12;29.50;38.60
1429;DHT22;708;51.442;7.016;2022-07-23T15:16:39;29.40;36.20
1429;DHT22;708;51.442;7.016;2022-07-23T15:19:06;29.30;35.40
1429;DHT22;708;51.442;7.016;2022-07-23T15:21:34;29.20;35.80
1429;DHT22;708;51.442;7.016;2022-07-23T15:24:01;29.30;39.40
1429;DHT22;708;51.442;7.016;2022-07-23T15:26:29;29.40;38.50
1429;DHT22;708;51.442;7.016;2022-07-23T15:28:56;29.60;37.80
1429;DHT22;708;51.442;7.016;2022-07-23T15:31:24;29.80;39.00
1429;DHT22;708;51.442;7.016;2022-07-23T15:33:51;30.00;34.40
1429;DHT22;708;51.442;7.016;2022-07-23T15:36:18;30.20;31.80
1429;DHT22;708;51.442;7.016;2022-07-23T15:38:48;30.10;29.00
1429;DHT22;708;51.442;7.016;2022-07-23T15:41:15;30.10;27.70
1429;DHT22;708;51.442;7.016;2022-07-23T15:43:42;30.10;25.70
1429;DHT22;708;51.442;7.016;2022-07-23T15:46:09;30.00;25.70
1429;DHT22;708;51.442;7.016;2022-07-23T15:48:37;30.00;24.70
1429;DHT22;708;51.442;7.016;2022-07-23T15:51:05;30.00;25.30
1429;DHT22;708;51.442;7.016;2022-07-23T15:53:32;30.00;24.40
1429;DHT22;708;51.442;7.016;2022-07-23T15:56:00;30.00;23.80
1429;DHT22;708;51.442;7.016;2022-07-23T15:58:28;30.00;23.10
1429;DHT22;708;51.442;7.016;2022-07-23T16:00:55;29.60;21.70
1429;DHT22;708;51.442;7.016;2022-07-23T16:03:22;29.50;22.50
1429;DHT22;708;51.442;7.016;2022-07-23T16:05:49;29.30;22.10
1429;DHT22;708;51.442;7.016;2022-07-23T16:08:16;29.20;22.60
1429;DHT22;708;51.442;7.016;2022-07-23T16:10:43;29.20;24.20
1429;DHT22;708;51.442;7.016;2022-07-23T16:13:11;29.20;26.50
1429;DHT22;708;51.442;7.016;2022-07-23T16:15:39;29.00;27.30
1429;DHT22;708;51.442;7.016;2022-07-23T16:18:07;28.90;28.30
1429;DHT22;708;51.442;7.016;2022-07-23T16:20:36;28.80;31.10
1429;DHT22;708;51.442;7.016;2022-07-23T16:23:03;28.70;36.50
1429;DHT22;708;51.442;7.016;2022-07-23T16:25:30;28.50;39.90
1429;DHT22;708;51.442;7.016;2022-07-23T16:27:57;28.40;45.10
1429;DHT22;708;51.442;7.016;2022-07-23T16:30:25;28.40;52.90
1429;DHT22;708;51.442;7.016;2022-07-23T16:32:55;28.40;57.60
1429;DHT22;708;51.442;7.016;2022-07-23T16:35:24;28.40;58.00
1429;DHT22;708;51.442;7.016;2022-07-23T16:37:52;28.40;61.10
1429;DHT22;708;51.442;7.016;2022-07-23T16:40:19;28.40;65.90